createdAt,value
2019-02-02T00:02:33.856Z,99392.15
2019-02-02T00:05:37.481Z,99389.94
2019-02-02T00:08:41.092Z,99387.53
2019-02-02T00:11:44.821Z,99382.54
2019-02-02T00:14:48.383Z,99373.37
2019-02-02T00:17:52.095Z,99351.40
2019-02-02T00:20:55.764Z,99349.69
2019-02-02T00:23:59.379Z,99350.43
2019-02-02T00:27:03.131Z,99359.25
2019-02-02T00:30:08.042Z,99359.00
2019-02-02T00:33:11.798Z,99357.36
2019-02-02T00:36:15.441Z,99370.46
2019-02-02T00:39:19.095Z,99378.59
2019-02-02T00:42:22.756Z,99400.08
2019-02-02T00:45:26.473Z,99408.52
2019-02-02T00:48:30.240Z,99402.31
2019-02-02T00:51:33.893Z,99409.98
2019-02-02T00:54:37.553Z,99413.53
2019-02-02T00:57:52.662Z,99416.68
2019-02-02T01:00:44.802Z,99417.03
2019-02-02T01:03:48.451Z,99419.09
2019-02-02T01:06:52.104Z,99419.21
2019-02-02T01:09:55.724Z,99410.31
2019-02-02T01:12:59.482Z,99411.81
2019-02-02T01:16:03.133Z,99402.90
2019-02-02T01:19:06.844Z,99396.49
2019-02-02T01:22:10.538Z,99386.72
2019-02-02T01:25:14.330Z,99395.02
2019-02-02T01:28:17.898Z,99391.95
2019-02-02T01:31:21.645Z,99399.29
2019-02-02T01:34:25.167Z,99394.51
2019-02-02T01:37:28.889Z,99414.95
2019-02-02T01:40:32.510Z,99410.82
2019-02-02T01:43:36.112Z,99400.60
2019-02-02T01:46:39.688Z,99408.51
2019-02-02T01:49:43.377Z,99418.50
2019-02-02T01:52:47.028Z,99435.15
2019-02-02T01:55:50.609Z,99437.03
2019-02-02T01:58:54.285Z,99439.06
2019-02-02T02:01:57.795Z,99426.80
2019-02-02T02:05:01.556Z,99426.70
2019-02-02T02:08:05.136Z,99433.39
2019-02-02T02:11:08.774Z,99426.48
2019-02-02T02:14:12.501Z,99416.89
2019-02-02T02:17:16.131Z,99427.23
2019-02-02T02:20:19.831Z,99443.96
2019-02-02T02:23:23.475Z,99448.03
2019-02-02T02:26:27.101Z,99442.84
2019-02-02T02:29:30.712Z,99457.53
2019-02-02T02:32:34.334Z,99436.42
2019-02-02T02:35:37.857Z,99427.99
2019-02-02T02:38:41.449Z,99414.19
2019-02-02T02:41:45.030Z,99411.95
2019-02-02T02:44:48.581Z,99415.31
2019-02-02T02:47:52.135Z,99412.48
2019-02-02T02:50:55.835Z,99408.88
2019-02-02T02:53:59.488Z,99401.49
2019-02-02T02:57:03.033Z,99401.87
2019-02-02T03:00:12.033Z,99409.27
2019-02-02T03:03:15.719Z,99423.47
2019-02-02T03:06:19.330Z,99429.87
2019-02-02T03:09:22.975Z,99435.49
2019-02-02T03:12:26.638Z,99436.90
2019-02-02T03:15:30.236Z,99435.76
2019-02-02T03:18:33.817Z,99432.79
2019-02-02T03:21:37.399Z,99421.48
2019-02-02T03:24:41.035Z,99412.80
2019-02-02T03:27:44.636Z,99422.44
2019-02-02T03:30:48.267Z,99426.31
2019-02-02T03:33:51.800Z,99417.70
2019-02-02T03:36:55.405Z,99401.77
2019-02-02T03:39:58.914Z,99392.88
2019-02-02T03:43:02.507Z,99409.93
2019-02-02T03:46:06.100Z,99424.19
2019-02-02T03:49:09.680Z,99429.79
2019-02-02T03:52:13.271Z,99423.81
2019-02-02T03:55:16.899Z,99453.38
2019-02-02T03:58:20.615Z,99490.06
2019-02-02T04:01:24.291Z,99487.39
2019-02-02T04:04:27.979Z,99480.45
2019-02-02T04:07:31.586Z,99477.59
2019-02-02T04:10:35.301Z,99468.68
2019-02-02T04:13:38.949Z,99472.77
2019-02-02T04:16:42.627Z,99469.03
2019-02-02T04:19:46.267Z,99476.11
2019-02-02T04:22:50.166Z,99465.85
2019-02-02T04:25:53.856Z,99472.06
2019-02-02T04:28:57.580Z,99471.26
2019-02-02T04:32:01.260Z,99471.01
2019-02-02T04:35:05.818Z,99475.40
2019-02-02T04:38:09.421Z,99475.00
2019-02-02T04:41:13.312Z,99481.48
2019-02-02T04:44:17.914Z,99498.41
2019-02-02T04:47:21.502Z,99508.23
2019-02-02T04:50:25.167Z,99508.30
2019-02-02T04:53:28.933Z,99503.37
2019-02-02T04:56:32.546Z,99503.30
2019-02-02T04:59:36.185Z,99510.68
2019-02-02T05:02:40.043Z,99515.64
2019-02-02T05:05:43.795Z,99514.76
2019-02-02T05:08:47.510Z,99501.50
2019-02-02T05:11:51.203Z,99493.13
2019-02-02T05:14:54.884Z,99475.13
2019-02-02T05:17:58.519Z,99477.74
2019-02-02T05:21:02.147Z,99469.51
2019-02-02T05:24:05.814Z,99454.91
2019-02-02T05:27:09.390Z,99459.55
2019-02-02T05:30:18.538Z,99485.24
2019-02-02T05:33:22.127Z,99512.04
2019-02-02T05:36:25.815Z,99533.83
2019-02-02T05:39:29.622Z,99539.96
2019-02-02T05:42:33.336Z,99545.64
2019-02-02T05:45:37.041Z,99555.60
2019-02-02T05:48:40.636Z,99572.92
2019-02-02T05:51:44.282Z,99575.03
2019-02-02T05:54:48.054Z,99578.23
2019-02-02T05:57:51.681Z,99592.49
2019-02-02T06:00:55.977Z,99590.12
2019-02-02T06:03:59.760Z,99582.26
2019-02-02T06:07:03.382Z,99577.26
2019-02-02T06:10:09.034Z,99580.36
2019-02-02T06:13:12.833Z,99591.57
2019-02-02T06:16:16.489Z,99587.70
2019-02-02T06:19:20.161Z,99589.53
2019-02-02T06:22:23.789Z,99601.58
2019-02-02T06:25:27.543Z,99600.43
2019-02-02T06:28:31.241Z,99603.59
2019-02-02T06:31:34.765Z,99598.87
2019-02-02T06:34:38.394Z,99601.15
2019-02-02T06:37:42.135Z,99609.84
2019-02-02T06:40:45.839Z,99609.04
2019-02-02T06:43:49.629Z,99628.61
2019-02-02T06:46:53.286Z,99634.15
2019-02-02T06:49:56.993Z,99626.69
2019-02-02T06:53:00.884Z,99634.84
2019-02-02T06:56:04.593Z,99639.23
2019-02-02T06:59:08.406Z,99644.53
2019-02-02T07:02:12.459Z,99649.61
2019-02-02T07:05:16.097Z,99655.53
2019-02-02T07:08:19.771Z,99662.25
2019-02-02T07:11:23.432Z,99666.94
2019-02-02T07:14:27.027Z,99665.67
2019-02-02T07:17:30.625Z,99654.81
2019-02-02T07:20:34.387Z,99663.12
2019-02-02T07:23:38.151Z,99672.33
2019-02-02T07:26:41.781Z,99682.12
2019-02-02T07:29:45.376Z,99694.97
2019-02-02T07:32:48.986Z,99688.58
2019-02-02T07:35:54.110Z,99689.36
2019-02-02T07:38:56.306Z,99694.14
2019-02-02T07:41:59.868Z,99697.67
2019-02-02T07:45:03.539Z,99701.25
2019-02-02T07:48:07.198Z,99708.98
2019-02-02T07:51:10.808Z,99715.32
2019-02-02T07:54:14.394Z,99718.38
2019-02-02T07:57:18.007Z,99728.20
2019-02-02T08:00:25.855Z,99725.23
2019-02-02T08:03:29.429Z,99724.75
2019-02-02T08:06:33.049Z,99729.90
2019-02-02T08:09:36.641Z,99739.29
2019-02-02T08:12:40.798Z,99746.77
2019-02-02T08:15:44.406Z,99753.00
2019-02-02T08:18:48.119Z,99755.72
2019-02-02T08:21:51.721Z,99759.86
2019-02-02T08:24:55.274Z,99766.08
2019-02-02T08:27:59.029Z,99772.61
2019-02-02T08:31:02.560Z,99778.99
2019-02-02T08:34:06.148Z,99770.15
2019-02-02T08:37:09.799Z,99774.78
2019-02-02T08:40:13.967Z,99774.14
2019-02-02T08:43:17.595Z,99777.37
2019-02-02T08:46:21.242Z,99778.36
2019-02-02T08:49:24.870Z,99785.55
2019-02-02T08:52:28.592Z,99788.05
2019-02-02T08:55:32.545Z,99791.02
2019-02-02T08:58:36.288Z,99797.64
2019-02-02T09:01:40.123Z,99799.23
2019-02-02T09:04:43.916Z,99807.53
2019-02-02T09:07:47.775Z,99817.57
2019-02-02T09:10:51.465Z,99826.10
2019-02-02T09:13:55.346Z,99827.78
2019-02-02T09:16:59.047Z,99838.79
2019-02-02T09:20:02.832Z,99838.51
2019-02-02T09:23:06.851Z,99841.13
2019-02-02T09:26:10.530Z,99842.06
2019-02-02T09:29:14.229Z,99846.18
2019-02-02T09:32:17.914Z,99855.49
2019-02-02T09:35:22.046Z,99852.34
2019-02-02T09:38:25.769Z,99856.65
2019-02-02T09:41:29.430Z,99854.53
2019-02-02T09:44:34.001Z,99865.55
2019-02-02T09:47:37.738Z,99864.11
2019-02-02T09:50:41.276Z,99867.06
2019-02-02T09:53:45.037Z,99879.50
2019-02-02T09:56:48.582Z,99881.82
2019-02-02T09:59:53.170Z,99885.71
2019-02-02T10:02:58.014Z,99889.07
2019-02-02T10:06:01.498Z,99887.40
2019-02-02T10:09:08.051Z,99889.78
2019-02-02T10:12:11.969Z,99884.86
2019-02-02T10:15:15.662Z,99890.26
2019-02-02T10:18:19.333Z,99892.16
2019-02-02T10:21:23.077Z,99895.19
2019-02-02T10:24:28.646Z,99896.76
2019-02-02T10:27:30.342Z,99909.10
2019-02-02T10:30:39.815Z,99905.69
2019-02-02T10:33:43.560Z,99909.71
2019-02-02T10:36:47.233Z,99909.83
2019-02-02T10:39:50.974Z,99910.85
2019-02-02T10:42:54.651Z,99908.27
2019-02-02T10:45:58.398Z,99923.49
2019-02-02T10:49:02.135Z,99919.04
2019-02-02T10:52:09.150Z,99920.59
2019-02-02T10:55:13.321Z,99929.41
2019-02-02T10:58:17.327Z,99924.02
2019-02-02T11:01:21.338Z,99930.35
2019-02-02T11:04:25.199Z,99931.19
2019-02-02T11:07:29.131Z,99930.88
2019-02-02T11:10:32.860Z,99927.66
2019-02-02T11:13:37.598Z,99938.00
2019-02-02T11:16:41.240Z,99935.91
2019-02-02T11:19:45.020Z,99932.83
2019-02-02T11:22:48.579Z,99941.69
2019-02-02T11:25:53.451Z,99937.48
2019-02-02T11:28:57.107Z,99940.67
2019-02-02T11:32:03.016Z,99943.75
2019-02-02T11:35:05.745Z,99949.96
2019-02-02T11:38:09.457Z,99955.22
2019-02-02T11:41:13.171Z,99954.05
2019-02-02T11:44:19.843Z,99958.83
2019-02-02T11:47:20.781Z,99966.05
2019-02-02T11:50:24.864Z,99958.49
2019-02-02T11:53:28.528Z,99960.90
2019-02-02T11:56:32.244Z,99962.27
2019-02-02T11:59:35.863Z,99969.27
2019-02-02T12:02:49.058Z,99978.30
2019-02-02T12:05:43.303Z,99981.87
2019-02-02T12:08:49.300Z,99983.89
2019-02-02T12:11:51.220Z,99981.11
2019-02-02T12:14:57.007Z,99978.31
2019-02-02T12:17:58.969Z,99977.71
2019-02-02T12:21:02.705Z,99980.91
2019-02-02T12:24:14.393Z,99978.72
2019-02-02T12:27:15.385Z,99990.47
2019-02-02T12:30:21.112Z,99986.70
2019-02-02T12:33:25.944Z,99997.63
2019-02-02T12:36:28.263Z,99994.26
2019-02-02T12:39:31.840Z,100000.24
2019-02-02T12:42:35.456Z,100003.87
2019-02-02T12:45:42.846Z,100003.28
2019-02-02T12:48:46.472Z,100002.79
2019-02-02T12:51:50.174Z,100009.84
2019-02-02T12:54:53.924Z,100012.83
2019-02-02T12:57:57.494Z,100015.55
2019-02-02T13:01:01.061Z,100015.82
2019-02-02T13:04:05.536Z,100012.18
2019-02-02T13:07:08.422Z,100004.29
2019-02-02T13:10:15.105Z,99994.70
2019-02-02T13:13:22.399Z,99999.08
2019-02-02T13:16:26.018Z,99999.54
2019-02-02T13:19:30.820Z,100005.86
2019-02-02T13:22:34.611Z,100012.14
2019-02-02T13:25:40.955Z,100024.67
2019-02-02T13:28:44.806Z,100025.32
2019-02-02T13:31:48.526Z,100025.98
2019-02-02T13:34:52.143Z,100027.33
2019-02-02T13:37:55.791Z,100032.56
2019-02-02T13:40:59.478Z,100032.97
2019-02-02T13:44:05.554Z,100039.46
2019-02-02T13:47:13.809Z,100043.42
2019-02-02T13:50:18.306Z,100041.86
2019-02-02T13:53:23.018Z,100045.84
2019-02-02T13:56:27.276Z,100050.23
2019-02-02T13:59:31.564Z,100055.85
2019-02-02T14:02:38.214Z,100057.96
2019-02-02T14:05:43.328Z,100063.75
2019-02-02T14:08:48.390Z,100073.22
2019-02-02T14:11:59.521Z,100074.49
2019-02-02T14:15:06.959Z,100074.47
2019-02-02T14:18:14.154Z,100078.62
2019-02-02T14:21:21.289Z,100086.44
2019-02-02T14:24:28.883Z,100092.87
2019-02-02T14:27:36.041Z,100103.26
2019-02-02T14:30:40.340Z,100111.59
2019-02-02T14:33:47.146Z,100119.53
2019-02-02T14:36:52.936Z,100117.72
2019-02-02T14:39:58.002Z,100128.70
2019-02-02T14:43:01.962Z,100133.05
2019-02-02T14:46:06.003Z,100132.73
2019-02-02T14:49:09.650Z,100142.46
2019-02-02T14:52:13.398Z,100147.10
2019-02-02T14:55:18.989Z,100149.03
2019-02-02T14:58:22.626Z,100156.00
2019-02-02T15:01:26.373Z,100157.02
2019-02-02T15:04:30.022Z,100159.87
2019-02-02T15:07:33.607Z,100170.81
2019-02-02T15:10:37.380Z,100181.46
2019-02-02T15:13:40.989Z,100184.19
2019-02-02T15:16:44.734Z,100186.79
2019-02-02T15:19:48.303Z,100184.68
2019-02-02T15:22:51.993Z,100184.00
2019-02-02T15:25:55.627Z,100190.73
2019-02-02T15:28:59.320Z,100191.89
2019-02-02T15:32:03.026Z,100189.37
2019-02-02T15:35:06.854Z,100193.72
2019-02-02T15:38:10.519Z,100200.14
2019-02-02T15:41:14.081Z,100204.43
2019-02-02T15:44:17.764Z,100208.49
2019-02-02T15:47:21.432Z,100212.64
2019-02-02T15:50:25.142Z,100218.02
2019-02-02T15:53:28.932Z,100220.75
2019-02-02T15:56:32.547Z,100229.28
2019-02-02T15:59:38.730Z,100230.87
2019-02-02T16:02:39.808Z,100238.25
2019-02-02T16:05:43.469Z,100245.61
2019-02-02T16:08:47.201Z,100250.28
2019-02-02T16:11:51.001Z,100253.39
2019-02-02T16:14:54.803Z,100259.21
2019-02-02T16:17:58.490Z,100268.40
2019-02-02T16:21:02.112Z,100272.07
2019-02-02T16:24:05.785Z,100273.18
2019-02-02T16:27:09.422Z,100281.45
2019-02-02T16:30:15.404Z,100280.74
2019-02-02T16:33:19.090Z,100289.01
2019-02-02T16:36:22.799Z,100288.75
2019-02-02T16:39:26.421Z,100288.98
2019-02-02T16:42:30.177Z,100288.56
2019-02-02T16:45:33.883Z,100291.81
2019-02-02T16:48:37.664Z,100292.75
2019-02-02T16:51:41.409Z,100296.53
2019-02-02T16:54:45.038Z,100293.65
2019-02-02T16:57:48.660Z,100295.39
2019-02-02T17:00:52.247Z,100298.91
2019-02-02T17:03:55.863Z,100312.02
2019-02-02T17:06:59.711Z,100322.33
2019-02-02T17:10:04.547Z,100330.65
2019-02-02T17:13:08.309Z,100337.83
2019-02-02T17:16:12.074Z,100333.99
2019-02-02T17:19:15.773Z,100338.42
2019-02-02T17:22:19.561Z,100337.36
2019-02-02T17:25:23.262Z,100341.50
2019-02-02T17:28:26.860Z,100345.55
2019-02-02T17:31:30.640Z,100344.91
2019-02-02T17:34:34.326Z,100338.23
2019-02-02T17:37:39.043Z,100332.57
2019-02-02T17:40:42.784Z,100339.25
2019-02-02T17:43:46.285Z,100342.71
2019-02-02T17:46:49.970Z,100350.01
2019-02-02T17:49:53.626Z,100348.67
2019-02-02T17:52:57.277Z,100343.95
2019-02-02T17:56:01.079Z,100345.74
2019-02-02T17:59:05.103Z,100345.39
2019-02-02T18:02:08.770Z,100352.99
2019-02-02T18:05:12.434Z,100349.05
2019-02-02T18:08:16.072Z,100352.08
2019-02-02T18:11:19.667Z,100352.55
2019-02-02T18:14:23.329Z,100360.57
2019-02-02T18:17:27.061Z,100363.96
2019-02-02T18:20:30.757Z,100366.22
2019-02-02T18:23:34.426Z,100370.43
2019-02-02T18:26:38.035Z,100372.95
2019-02-02T18:29:41.644Z,100379.57
2019-02-02T18:32:45.287Z,100386.48
2019-02-02T18:35:48.929Z,100397.47
2019-02-02T18:38:52.529Z,100410.11
2019-02-02T18:41:56.155Z,100420.01
2019-02-02T18:44:59.802Z,100430.66
2019-02-02T18:48:03.579Z,100434.85
2019-02-02T18:51:07.306Z,100436.62
2019-02-02T18:54:10.894Z,100447.66
2019-02-02T18:57:14.506Z,100458.34
2019-02-02T19:00:19.266Z,100460.69
2019-02-02T19:03:23.076Z,100472.42
2019-02-02T19:06:26.744Z,100474.41
2019-02-02T19:09:30.422Z,100480.24
2019-02-02T19:12:34.132Z,100488.37
2019-02-02T19:15:37.889Z,100493.78
2019-02-02T19:18:41.488Z,100493.73
2019-02-02T19:21:45.028Z,100495.01
2019-02-02T19:24:48.729Z,100495.29
2019-02-02T19:27:52.461Z,100499.92
2019-02-02T19:30:56.156Z,100497.23
2019-02-02T19:33:59.869Z,100506.80
2019-02-02T19:37:03.539Z,100513.07
2019-02-02T19:40:07.739Z,100521.02
2019-02-02T19:43:11.386Z,100529.10
2019-02-02T19:46:15.049Z,100536.79
2019-02-02T19:49:18.542Z,100541.50
2019-02-02T19:52:22.294Z,100548.61
2019-02-02T19:55:25.871Z,100565.64
2019-02-02T19:58:29.556Z,100574.68
2019-02-02T20:01:33.202Z,100580.42
2019-02-02T20:04:36.860Z,100582.59
2019-02-02T20:07:40.591Z,100587.05
2019-02-02T20:10:44.275Z,100595.00
2019-02-02T20:13:47.975Z,100599.04
2019-02-02T20:16:51.659Z,100598.43
2019-02-02T20:19:55.399Z,100598.56
2019-02-02T20:22:59.067Z,100603.78
2019-02-02T20:26:02.739Z,100606.19
2019-02-02T20:29:06.398Z,100616.14
2019-02-02T20:32:10.091Z,100624.66
2019-02-02T20:35:14.103Z,100634.91
2019-02-02T20:38:17.742Z,100647.76
2019-02-02T20:41:21.362Z,100659.27
2019-02-02T20:44:25.010Z,100666.46
2019-02-02T20:47:28.526Z,100676.76
2019-02-02T20:50:35.715Z,100681.45
2019-02-02T20:53:39.272Z,100684.96
2019-02-02T20:56:42.888Z,100693.98
2019-02-02T20:59:46.525Z,100696.85
2019-02-02T21:02:50.124Z,100698.43
2019-02-02T21:05:53.722Z,100709.87
2019-02-02T21:08:57.378Z,100717.17
2019-02-02T21:12:00.998Z,100721.11
2019-02-02T21:15:05.446Z,100722.91
2019-02-02T21:18:11.842Z,100720.59
2019-02-02T21:21:12.756Z,100727.33
2019-02-02T21:24:16.423Z,100724.98
2019-02-02T21:27:19.926Z,100720.57
2019-02-02T21:30:26.415Z,100709.45
2019-02-02T21:33:30.047Z,100710.27
2019-02-02T21:36:33.586Z,100711.93
2019-02-02T21:39:37.247Z,100709.09
2019-02-02T21:42:41.658Z,100703.39
2019-02-02T21:45:45.267Z,100710.13
2019-02-02T21:48:48.911Z,100709.61
2019-02-02T21:51:52.468Z,100723.03
2019-02-02T21:54:56.117Z,100723.39
2019-02-02T21:57:59.843Z,100723.32
2019-02-02T22:01:03.520Z,100728.47
2019-02-02T22:04:07.110Z,100727.74
2019-02-02T22:07:10.747Z,100738.95
2019-02-02T22:10:14.454Z,100743.39
2019-02-02T22:13:18.199Z,100749.45
2019-02-02T22:16:21.767Z,100749.79
2019-02-02T22:19:25.400Z,100746.72
2019-02-02T22:22:29.851Z,100749.47
2019-02-02T22:25:33.503Z,100758.80
2019-02-02T22:28:37.183Z,100763.13
2019-02-02T22:31:40.863Z,100768.50
2019-02-02T22:34:44.614Z,100763.19
2019-02-02T22:37:48.300Z,100774.22
2019-02-02T22:40:51.991Z,100782.00
2019-02-02T22:43:55.702Z,100790.67
2019-02-02T22:46:59.403Z,100789.59
2019-02-02T22:50:03.272Z,100791.21
2019-02-02T22:53:06.969Z,100802.43
2019-02-02T22:56:11.659Z,100806.76
2019-02-02T22:59:15.451Z,100816.09
2019-02-02T23:02:21.344Z,100819.92
2019-02-02T23:05:34.365Z,100825.05
2019-02-02T23:09:05.965Z,100835.93
2019-02-02T23:12:23.290Z,100835.65
2019-02-02T23:16:41.348Z,100850.88
2019-02-02T23:19:45.031Z,100853.79
2019-02-02T23:22:48.814Z,100858.72
2019-02-02T23:25:52.587Z,100859.25
2019-02-02T23:28:56.456Z,100867.86
2019-02-02T23:32:01.211Z,100866.97
2019-02-02T23:35:05.003Z,100873.30
2019-02-02T23:38:08.731Z,100874.66
2019-02-02T23:41:12.409Z,100878.24
2019-02-02T23:44:16.143Z,100879.70
2019-02-02T23:47:19.851Z,100888.30
2019-02-02T23:50:23.508Z,100896.69
2019-02-02T23:53:27.246Z,100902.22
2019-02-02T23:56:30.923Z,100904.71
2019-02-02T23:59:35.293Z,100912.27
